Time;durP1;ratioP1;P1;durP2;ratioP2;P2;SDS_P1;SDS_P2;PMS_P1;PMS_P2;Temp;Humidity;BMP_temperature;BMP_pressure;BME280_temperature;BME280_humidity;BME280_pressure;Samples;Min_cycle;Max_cycle;Signal;HPM_P1;HPM_P2
2023/06/08 00:00:50;;;;;;;6.87;5.30;;;16.90;99.90;;;;;;5055078;28;20184;-80
2023/06/08 00:03:18;;;;;;;7.53;5.50;;;17.00;99.90;;;;;;5054199;28;20206;-80
2023/06/08 00:05:48;;;;;;;7.93;6.03;;;16.90;99.90;;;;;;5054689;28;20233;-79
2023/06/08 00:08:14;;;;;;;7.53;5.90;;;16.90;99.90;;;;;;5053600;28;20180;-80
2023/06/08 00:10:44;;;;;;;9.57;5.97;;;16.90;99.90;;;;;;5053235;28;20183;-80
2023/06/08 00:13:10;;;;;;;9.17;5.83;;;16.90;99.90;;;;;;5049860;28;20632;-78
2023/06/08 00:15:36;;;;;;;8.07;6.10;;;16.90;99.90;;;;;;5034758;28;20172;-80
2023/06/08 00:18:02;;;;;;;8.40;5.83;;;16.90;99.90;;;;;;5033041;28;20172;-80
2023/06/08 00:20:28;;;;;;;9.93;5.37;;;16.90;99.90;;;;;;5034833;28;20256;-80
2023/06/08 00:22:54;;;;;;;9.63;5.30;;;16.90;99.90;;;;;;5038313;28;20703;-79
2023/06/08 00:25:20;;;;;;;10.50;6.60;;;16.90;99.90;;;;;;5055195;28;20186;-80
2023/06/08 00:27:45;;;;;;;7.93;5.60;;;16.90;99.90;;;;;;5054638;28;20501;-80
2023/06/08 00:30:13;;;;;;;8.60;5.30;;;16.90;99.90;;;;;;5054888;28;20221;-80
2023/06/08 00:32:39;;;;;;;8.37;5.97;;;16.90;99.90;;;;;;5054500;28;20241;-80
2023/06/08 00:35:05;;;;;;;7.87;5.93;;;16.80;99.90;;;;;;5035105;28;20180;-80
2023/06/08 00:37:31;;;;;;;9.87;5.90;;;16.80;99.90;;;;;;5033387;28;20660;-80
2023/06/08 00:39:57;;;;;;;7.57;4.83;;;16.80;99.90;;;;;;5037904;28;20207;-80
2023/06/08 00:42:22;;;;;;;10.30;5.40;;;16.80;99.90;;;;;;5035136;28;20192;-80
2023/06/08 00:44:48;;;;;;;9.97;5.50;;;16.90;99.90;;;;;;5034644;28;20261;-79
2023/06/08 00:47:13;;;;;;;11.60;5.67;;;16.80;99.90;;;;;;5034806;28;20172;-80
2023/06/08 00:49:39;;;;;;;9.70;5.60;;;16.80;99.90;;;;;;5035664;28;20194;-80
2023/06/08 00:52:07;;;;;;;10.73;6.00;;;16.80;99.90;;;;;;5052611;28;20663;-80
2023/06/08 00:54:34;;;;;;;9.47;5.33;;;16.80;99.90;;;;;;5054573;28;20582;-79
2023/06/08 00:57:02;;;;;;;9.93;5.23;;;16.80;99.90;;;;;;5057907;28;20665;-80
2023/06/08 00:59:30;;;;;;;9.17;5.80;;;16.80;99.90;;;;;;5056919;28;20726;-80
2023/06/08 01:01:57;;;;;;;8.17;5.40;;;16.80;99.90;;;;;;5049637;28;20321;-80
2023/06/08 01:04:23;;;;;;;9.07;5.37;;;16.80;99.90;;;;;;5058675;28;20223;-79
2023/06/08 01:06:53;;;;;;;11.30;5.53;;;16.80;99.90;;;;;;5056346;28;20266;-79
2023/06/08 01:09:26;;;;;;;10.10;5.80;;;16.80;99.90;;;;;;5058015;28;20225;-79
2023/06/08 01:12:13;;;;;;;12.27;5.80;;;16.70;99.90;;;;;;5058215;28;20653;-79
2023/06/08 01:14:41;;;;;;;9.93;5.53;;;16.70;99.90;;;;;;5038862;28;20657;-80
2023/06/08 01:17:09;;;;;;;9.57;5.90;;;16.70;99.90;;;;;;5045264;28;20184;-80
2023/06/08 01:19:54;;;;;;;8.10;5.37;;;16.80;99.90;;;;;;5036468;28;20176;-80
2023/06/08 01:22:27;;;;;;;12.57;5.83;;;16.80;99.90;;;;;;5036697;28;20685;-80
2023/06/08 01:24:59;;;;;;;15.10;5.80;;;16.80;99.90;;;;;;5036396;28;20198;-80
2023/06/08 01:27:26;;;;;;;10.27;5.60;;;16.80;99.90;;;;;;5051409;28;20185;-80
2023/06/08 01:29:52;;;;;;;13.27;6.40;;;16.80;94.20;;;;;;5056639;28;20179;-80
2023/06/08 01:32:19;;;;;;;15.37;5.87;;;16.80;99.60;;;;;;5056236;28;20223;-80
2023/06/08 01:34:45;;;;;;;12.13;5.60;;;16.80;91.20;;;;;;5056672;28;20175;-81
2023/06/08 01:37:23;;;;;;;9.30;5.40;;;16.80;90.80;;;;;;5057440;28;20200;-80
2023/06/08 01:39:59;;;;;;;10.63;5.87;;;16.80;92.20;;;;;;5056143;28;20175;-80
2023/06/08 01:42:25;;;;;;;10.03;5.40;;;16.80;77.30;;;;;;5056743;28;20195;-80
2023/06/08 01:45:00;;;;;;;10.90;5.53;;;16.80;77.60;;;;;;5058009;28;20184;-79
2023/06/08 01:47:34;;;;;;;14.70;5.70;;;16.80;75.20;;;;;;5045813;28;20198;-79
2023/06/08 01:50:01;;;;;;;10.43;6.10;;;16.80;59.00;;;;;;5037873;28;20303;-79
2023/06/08 01:52:27;;;;;;;11.97;5.63;;;16.80;30.70;;;;;;5038030;28;20208;-80
2023/06/08 01:54:52;;;;;;;8.30;6.07;;;16.80;23.10;;;;;;5056785;28;20183;-81
2023/06/08 01:57:18;;;;;;;11.87;5.90;;;16.90;5.50;;;;;;5056914;28;20237;-80
2023/06/08 01:59:44;;;;;;;11.03;5.07;;;16.90;5.70;;;;;;5060193;28;20175;-80
2023/06/08 02:02:09;;;;;;;7.97;5.40;;;16.80;9.70;;;;;;5056611;28;20265;-80
2023/06/08 02:04:35;;;;;;;12.93;6.07;;;16.80;1.00;;;;;;5056065;28;20287;-80
2023/06/08 02:07:01;;;;;;;8.67;5.77;;;16.80;1.00;;;;;;5056621;28;20183;-80
2023/06/08 02:09:26;;;;;;;9.47;5.70;;;16.80;1.00;;;;;;5055238;28;20255;-80
2023/06/08 02:12:08;;;;;;;8.73;5.50;;;16.80;1.00;;;;;;5056102;28;20214;-80
2023/06/08 02:14:35;;;;;;;10.67;5.30;;;16.80;1.00;;;;;;5037707;28;20171;-80
2023/06/08 02:17:03;;;;;;;8.77;5.47;;;16.90;1.00;;;;;;5037390;28;20210;-80
2023/06/08 02:19:30;;;;;;;12.47;5.63;;;16.80;1.00;;;;;;5037628;28;20195;-80
2023/06/08 02:21:57;;;;;;;8.83;5.10;;;16.90;1.00;;;;;;5039425;28;20184;-79
2023/06/08 02:24:22;;;;;;;11.97;5.97;;;16.90;1.00;;;;;;5056727;28;20226;-80
2023/06/08 02:26:52;;;;;;;14.63;5.43;;;16.90;1.00;;;;;;5057253;28;20514;-79
2023/06/08 02:29:17;;;;;;;12.10;5.23;;;16.90;1.00;;;;;;5057618;28;20164;-80
2023/06/08 02:31:43;;;;;;;14.93;5.73;;;16.80;1.00;;;;;;5055818;28;20183;-79
2023/06/08 02:34:08;;;;;;;10.67;5.43;;;16.80;1.00;;;;;;5059028;28;20227;-80
2023/06/08 02:36:34;;;;;;;10.80;5.60;;;16.80;1.00;;;;;;5078873;28;20318;-78
2023/06/08 02:39:00;;;;;;;9.80;5.30;;;16.80;1.00;;;;;;5078123;28;20209;-79
2023/06/08 02:41:26;;;;;;;12.27;5.73;;;16.80;1.00;;;;;;5067295;28;20184;-80
2023/06/08 02:43:51;;;;;;;10.23;5.40;;;16.70;1.00;;;;;;5036139;28;20346;-80
2023/06/08 02:46:17;;;;;;;8.90;5.17;;;16.70;1.00;;;;;;5036346;28;20207;-80
2023/06/08 02:48:42;;;;;;;10.00;5.13;;;16.60;1.00;;;;;;5035133;28;20180;-79
2023/06/08 02:51:08;;;;;;;10.03;5.53;;;16.60;1.00;;;;;;5034592;28;20241;-80
2023/06/08 02:53:33;;;;;;;11.23;5.47;;;16.60;1.00;;;;;;5052837;28;20646;-79
2023/06/08 02:55:59;;;;;;;14.27;5.00;;;16.60;1.00;;;;;;5056352;28;20250;-79
2023/06/08 02:58:25;;;;;;;10.60;4.70;;;16.50;1.00;;;;;;5055521;28;20176;-80
2023/06/08 03:00:53;;;;;;;13.47;5.57;;;16.60;1.00;;;;;;5055965;28;20172;-80
2023/06/08 03:03:23;;;;;;;9.53;5.13;;;16.40;1.00;;;;;;5054875;28;20237;-78
2023/06/08 03:05:50;;;;;;;13.77;5.27;;;16.40;1.00;;;;;;5054872;28;20179;-80
2023/06/08 03:08:16;;;;;;;12.50;5.23;;;16.40;1.00;;;;;;5055774;28;20168;-79
2023/06/08 03:10:42;;;;;;;16.03;5.87;;;16.30;1.00;;;;;;5055767;28;20168;-80
2023/06/08 03:13:08;;;;;;;11.83;5.97;;;16.30;1.00;;;;;;5054378;28;20242;-79
2023/06/08 03:15:33;;;;;;;9.67;5.10;;;16.20;1.00;;;;;;5056025;28;20163;-80
2023/06/08 03:17:59;;;;;;;9.27;5.83;;;16.20;1.00;;;;;;5054266;28;20176;-79
2023/06/08 03:20:24;;;;;;;10.10;5.07;;;16.10;1.00;;;;;;5054535;28;20175;-80
2023/06/08 03:22:49;;;;;;;11.23;5.07;;;16.10;1.00;;;;;;5054857;28;20282;-79
2023/06/08 03:25:15;;;;;;;13.13;5.33;;;16.00;1.00;;;;;;5054129;28;20194;-80
2023/06/08 03:27:42;;;;;;;14.00;5.73;;;16.00;1.00;;;;;;5054134;28;20179;-80
2023/06/08 03:30:09;;;;;;;8.33;5.87;;;15.90;1.00;;;;;;5053062;28;20206;-78
2023/06/08 03:32:35;;;;;;;10.13;5.60;;;15.90;1.00;;;;;;5052465;28;20261;-78
2023/06/08 03:35:00;;;;;;;8.50;5.30;;;15.90;1.00;;;;;;5053959;28;20175;-78
2023/06/08 03:37:26;;;;;;;10.47;5.57;;;15.80;1.00;;;;;;5052911;28;20232;-78
2023/06/08 03:39:51;;;;;;;10.20;5.67;;;15.80;1.00;;;;;;5054739;28;20250;-80
2023/06/08 03:42:17;;;;;;;13.40;6.10;;;15.80;1.00;;;;;;5053659;28;20718;-79
2023/06/08 03:44:42;;;;;;;12.57;5.83;;;15.70;1.00;;;;;;5055233;28;20171;-78
2023/06/08 03:47:09;;;;;;;12.40;5.73;;;15.70;1.00;;;;;;5054053;28;20179;-79
2023/06/08 03:49:34;;;;;;;10.33;5.17;;;15.60;1.00;;;;;;5054718;28;20188;-79
2023/06/08 03:52:01;;;;;;;12.10;5.80;;;15.60;1.60;;;;;;5053708;28;20176;-77
2023/06/08 03:54:26;;;;;;;10.50;5.70;;;15.50;7.60;;;;;;5052540;28;20176;-78
2023/06/08 03:56:52;;;;;;;12.67;6.47;;;15.50;13.30;;;;;;5053099;28;20176;-78
2023/06/08 03:59:17;;;;;;;10.77;5.97;;;15.50;1.00;;;;;;5053433;28;20186;-77
2023/06/08 04:01:45;;;;;;;15.87;6.10;;;15.40;1.00;;;;;;5053803;28;20233;-78
2023/06/08 04:04:10;;;;;;;12.17;6.07;;;15.50;10.50;;;;;;5051468;28;20203;-78
2023/06/08 04:06:38;;;;;;;11.80;6.60;;;15.40;1.00;;;;;;5052980;28;20658;-77
2023/06/08 04:09:04;;;;;;;14.57;6.13;;;15.40;1.00;;;;;;5053394;28;20266;-78
2023/06/08 04:11:30;;;;;;;15.70;6.90;;;15.40;1.00;;;;;;5053361;28;20179;-78
2023/06/08 04:13:55;;;;;;;12.00;6.60;;;15.40;1.00;;;;;;5050852;28;20211;-79
2023/06/08 04:16:21;;;;;;;16.07;6.97;;;15.40;1.00;;;;;;5053573;28;20194;-77
2023/06/08 04:18:47;;;;;;;11.33;6.53;;;15.40;1.00;;;;;;5053462;28;20222;-78
2023/06/08 04:21:12;;;;;;;13.87;6.87;;;15.40;1.00;;;;;;5053574;28;20175;-78
2023/06/08 04:23:38;;;;;;;12.10;6.47;;;15.40;1.00;;;;;;5052392;28;20261;-78
2023/06/08 04:26:06;;;;;;;12.53;6.43;;;15.40;1.00;;;;;;5053754;28;20191;-78
2023/06/08 04:28:32;;;;;;;13.23;6.37;;;15.40;1.00;;;;;;5055279;28;20611;-78
2023/06/08 04:31:01;;;;;;;14.50;6.13;;;15.40;9.80;;;;;;5055223;28;20267;-77
2023/06/08 04:33:27;;;;;;;12.70;6.87;;;15.40;1.00;;;;;;5046736;28;20216;-78
2023/06/08 04:35:53;;;;;;;13.03;6.63;;;15.30;1.00;;;;;;5037751;28;20198;-78
2023/06/08 04:38:20;;;;;;;12.57;6.00;;;15.40;1.00;;;;;;5035544;28;20270;-78
2023/06/08 04:40:53;;;;;;;11.03;7.47;;;15.30;1.00;;;;;;5037055;28;20259;-77
2023/06/08 04:43:25;;;;;;;14.53;7.00;;;15.30;1.00;;;;;;5035557;28;20215;-78
2023/06/08 04:45:55;;;;;;;16.63;6.43;;;15.40;1.00;;;;;;5037458;28;20195;-78
2023/06/08 04:48:21;;;;;;;17.07;8.00;;;15.30;1.00;;;;;;5036958;28;20167;-78
2023/06/08 04:50:50;;;;;;;16.57;7.23;;;15.30;1.00;;;;;;5052090;28;20195;-76
2023/06/08 04:53:16;;;;;;;14.27;6.60;;;15.30;1.00;;;;;;5045329;28;20195;-78
2023/06/08 04:55:44;;;;;;;11.73;6.57;;;15.30;1.00;;;;;;5056634;28;20160;-77
2023/06/08 04:58:11;;;;;;;13.63;6.17;;;15.30;1.00;;;;;;5056441;28;20167;-78
2023/06/08 05:00:36;;;;;;;13.33;6.17;;;15.30;1.00;;;;;;5055295;28;20519;-78
2023/06/08 05:03:02;;;;;;;12.43;6.60;;;15.40;1.00;;;;;;5056557;28;20270;-78
2023/06/08 05:05:28;;;;;;;13.10;5.77;;;15.40;1.00;;;;;;5056649;28;20175;-78
2023/06/08 05:07:53;;;;;;;12.77;6.57;;;15.40;1.00;;;;;;5056987;28;20210;-78
2023/06/08 05:10:20;;;;;;;16.30;6.63;;;15.40;1.00;;;;;;5056622;28;20267;-78
2023/06/08 05:12:45;;;;;;;12.90;6.67;;;15.40;1.00;;;;;;5055074;28;20594;-78
2023/06/08 05:15:11;;;;;;;13.37;6.67;;;15.40;1.00;;;;;;5057072;28;20174;-78
2023/06/08 05:17:36;;;;;;;15.30;6.63;;;15.40;1.00;;;;;;5055710;28;20544;-78
2023/06/08 05:20:02;;;;;;;13.77;7.13;;;15.50;1.00;;;;;;5055645;28;20592;-78
2023/06/08 05:22:28;;;;;;;9.80;6.33;;;15.50;1.00;;;;;;5054966;28;20286;-77
2023/06/08 05:24:54;;;;;;;12.63;6.67;;;15.50;1.00;;;;;;5053441;28;20187;-78
2023/06/08 05:27:19;;;;;;;15.80;6.70;;;15.50;1.00;;;;;;5062773;28;20168;-78
2023/06/08 05:29:45;;;;;;;13.63;7.43;;;15.60;1.00;;;;;;5073199;28;20660;-78
2023/06/08 05:32:11;;;;;;;14.43;7.70;;;15.60;1.00;;;;;;5078698;28;20176;-78
2023/06/08 05:34:36;;;;;;;19.27;8.57;;;15.60;1.00;;;;;;5078122;28;20183;-80
2023/06/08 05:37:02;;;;;;;13.23;6.80;;;15.50;1.00;;;;;;5078976;28;20172;-81
2023/06/08 05:39:27;;;;;;;17.67;6.53;;;15.70;1.00;;;;;;5077006;28;20202;-79
2023/06/08 05:41:53;;;;;;;12.23;6.60;;;15.70;1.00;;;;;;5066967;28;20175;-81
2023/06/08 05:44:18;;;;;;;14.83;7.33;;;15.80;1.00;;;;;;5071148;28;20629;-80
2023/06/08 05:46:44;;;;;;;16.17;7.17;;;15.80;1.00;;;;;;5072856;28;20299;-80
2023/06/08 05:49:11;;;;;;;12.53;7.23;;;15.80;1.00;;;;;;5071664;28;20176;-80
2023/06/08 05:51:36;;;;;;;11.57;7.33;;;15.80;1.00;;;;;;5071522;28;20159;-80
2023/06/08 05:54:02;;;;;;;17.60;7.70;;;15.90;1.00;;;;;;5071413;28;20199;-79
2023/06/08 05:56:28;;;;;;;13.73;6.97;;;16.10;1.00;;;;;;5070319;28;20247;-79
2023/06/08 05:58:54;;;;;;;11.03;7.27;;;15.90;1.00;;;;;;5072059;28;20188;-81
2023/06/08 06:01:20;;;;;;;11.87;6.70;;;16.00;1.00;;;;;;5069983;28;20266;-79
2023/06/08 06:03:46;;;;;;;13.87;7.20;;;16.00;1.00;;;;;;5070106;28;20196;-79
2023/06/08 06:06:12;;;;;;;13.17;7.40;;;16.10;1.00;;;;;;5070490;28;20202;-80
2023/06/08 06:08:37;;;;;;;13.27;6.73;;;16.10;1.00;;;;;;5071447;28;20203;-80
2023/06/08 06:11:03;;;;;;;11.87;6.43;;;16.40;1.00;;;;;;5071268;28;20187;-79
2023/06/08 06:13:31;;;;;;;11.83;7.80;;;16.30;1.00;;;;;;5071947;28;20213;-81
2023/06/08 06:15:57;;;;;;;11.07;7.10;;;16.30;1.00;;;;;;5077167;28;20174;-78
2023/06/08 06:18:23;;;;;;;12.70;7.27;;;16.30;1.00;;;;;;5078141;28;20195;-79
2023/06/08 06:20:48;;;;;;;12.70;6.47;;;16.30;1.00;;;;;;5075581;28;20222;-80
2023/06/08 06:23:14;;;;;;;13.73;7.70;;;16.30;1.00;;;;;;5070139;28;20195;-79
2023/06/08 06:25:39;;;;;;;11.53;6.97;;;16.40;1.00;;;;;;5068141;28;20176;-80
2023/06/08 06:28:05;;;;;;;10.50;6.90;;;16.40;1.00;;;;;;5069287;28;20172;-80
2023/06/08 06:30:31;;;;;;;12.50;7.23;;;16.40;1.00;;;;;;5068374;28;20198;-79
2023/06/08 06:32:56;;;;;;;9.57;6.80;;;16.40;1.00;;;;;;5070642;28;20218;-80
2023/06/08 06:35:22;;;;;;;11.40;6.90;;;16.40;1.00;;;;;;5070219;28;20171;-80
2023/06/08 06:37:49;;;;;;;13.27;6.27;;;16.40;1.00;;;;;;5069770;28;20198;-81
2023/06/08 06:40:15;;;;;;;9.43;6.40;;;16.50;1.00;;;;;;5067860;28;20619;-82
2023/06/08 06:42:40;;;;;;;13.00;7.50;;;16.50;1.00;;;;;;5067610;28;20252;-80
2023/06/08 06:45:06;;;;;;;11.60;6.97;;;16.50;1.00;;;;;;5067821;28;20213;-80
2023/06/08 06:47:32;;;;;;;12.57;7.93;;;16.60;1.00;;;;;;5068736;28;20172;-80
2023/06/08 06:49:57;;;;;;;12.10;6.93;;;16.80;1.00;;;;;;5069974;28;20221;-80
2023/06/08 06:52:23;;;;;;;13.80;7.97;;;16.70;1.00;;;;;;5069652;28;20207;-80
2023/06/08 06:54:48;;;;;;;15.13;7.90;;;16.70;1.00;;;;;;5070551;28;20179;-80
2023/06/08 06:57:14;;;;;;;12.00;7.73;;;16.80;1.00;;;;;;5068729;28;20180;-80
2023/06/08 06:59:40;;;;;;;14.73;7.77;;;16.80;1.00;;;;;;5070715;28;20235;-79
2023/06/08 07:02:06;;;;;;;10.20;7.17;;;16.80;1.00;;;;;;5067372;28;20195;-80
2023/06/08 07:04:32;;;;;;;12.73;7.87;;;16.90;1.00;;;;;;5067053;28;20243;-80
2023/06/08 07:06:57;;;;;;;12.37;7.63;;;16.90;1.00;;;;;;5066085;28;20206;-78
2023/06/08 07:09:24;;;;;;;14.77;6.80;;;17.00;1.00;;;;;;5065914;28;20205;-79
2023/06/08 07:11:50;;;;;;;10.20;6.40;;;17.20;1.00;;;;;;5065460;28;20185;-79
2023/06/08 07:14:16;;;;;;;15.17;7.67;;;17.20;1.00;;;;;;5067298;28;20688;-79
2023/06/08 07:16:41;;;;;;;10.53;6.37;;;17.30;1.00;;;;;;5067340;28;20649;-79
2023/06/08 07:19:07;;;;;;;13.87;6.80;;;17.40;1.00;;;;;;5066227;28;20191;-78
2023/06/08 07:21:38;;;;;;;12.63;6.57;;;17.60;1.00;;;;;;5067054;28;20241;-79
2023/06/08 07:24:07;;;;;;;11.67;7.00;;;17.70;1.00;;;;;;5064673;28;20649;-79
2023/06/08 07:26:33;;;;;;;13.77;7.70;;;17.70;1.00;;;;;;5066692;28;20199;-78
2023/06/08 07:28:58;;;;;;;12.53;6.47;;;17.80;1.00;;;;;;5064485;28;20182;-79
2023/06/08 07:31:26;;;;;;;9.60;6.70;;;17.70;1.00;;;;;;5066398;28;20191;-79
2023/06/08 07:33:52;;;;;;;14.77;7.07;;;17.80;1.00;;;;;;5064236;28;20207;-80
2023/06/08 07:36:18;;;;;;;12.57;7.13;;;17.90;1.00;;;;;;5064676;28;20210;-79
2023/06/08 07:42:06;;;;;;;14.33;7.30;;;17.90;1.00;;;;;;5065495;28;20163;-79
2023/06/08 07:44:32;;;;;;;11.13;6.90;;;17.90;1.00;;;;;;5065663;28;20167;-79
2023/06/08 07:46:58;;;;;;;12.67;7.60;;;18.00;1.00;;;;;;5065813;28;20263;-79
2023/06/08 07:49:23;;;;;;;9.83;7.30;;;18.20;1.00;;;;;;5065925;28;20184;-79
2023/06/08 07:51:50;;;;;;;13.07;7.13;;;18.10;1.00;;;;;;5066038;28;20223;-79
2023/06/08 07:54:19;;;;;;;12.70;7.30;;;18.10;1.00;;;;;;5065563;28;20210;-79
2023/06/08 07:56:48;;;;;;;15.03;8.40;;;18.10;1.00;;;;;;5064250;28;20183;-78
2023/06/08 07:59:14;;;;;;;12.70;7.67;;;18.10;1.00;;;;;;5065966;28;20191;-79
2023/06/08 08:01:41;;;;;;;13.50;7.83;;;18.10;1.00;;;;;;5065759;28;20164;-79
2023/06/08 08:04:06;;;;;;;12.27;6.87;;;18.10;1.00;;;;;;5062990;28;20196;-80
2023/06/08 08:06:32;;;;;;;13.93;7.57;;;18.20;1.00;;;;;;5064374;28;20178;-79
2023/06/08 08:08:57;;;;;;;11.13;7.17;;;18.30;1.00;;;;;;5063453;28;20190;-79
2023/06/08 08:11:23;;;;;;;12.30;7.27;;;18.40;1.00;;;;;;5065218;28;20186;-78
2023/06/08 08:13:49;;;;;;;11.27;7.07;;;18.50;1.00;;;;;;5065523;28;20258;-79
2023/06/08 08:16:15;;;;;;;11.20;7.73;;;18.50;1.00;;;;;;5062964;28;20345;-79
2023/06/08 08:18:40;;;;;;;12.93;7.30;;;18.60;1.00;;;;;;5063243;28;20176;-79
2023/06/08 08:21:06;;;;;;;12.40;7.63;;;18.70;1.00;;;;;;5063154;28;20171;-79
2023/06/08 08:23:32;;;;;;;13.03;7.90;;;18.80;1.00;;;;;;5062291;28;20207;-79
2023/06/08 08:25:57;;;;;;;15.50;8.13;;;19.00;1.00;;;;;;5063223;28;20576;-79
2023/06/08 08:28:23;;;;;;;15.07;7.67;;;19.00;1.00;;;;;;5062626;28;20202;-78
2023/06/08 08:30:48;;;;;;;14.40;7.63;;;19.10;1.00;;;;;;5064786;28;20191;-79
2023/06/08 08:33:14;;;;;;;13.07;6.80;;;19.20;1.00;;;;;;5065411;28;20203;-79
2023/06/08 08:35:40;;;;;;;12.10;6.43;;;19.40;1.00;;;;;;5063440;28;20194;-80
2023/06/08 08:38:05;;;;;;;12.77;7.50;;;19.50;1.00;;;;;;5065460;28;20251;-79
2023/06/08 08:40:31;;;;;;;13.47;6.50;;;19.70;1.00;;;;;;5065627;28;20246;-80
2023/06/08 08:43:22;;;;;;;14.40;7.47;;;19.70;1.00;;;;;;5063877;28;20644;-79
2023/06/08 08:45:50;;;;;;;10.73;7.50;;;19.80;1.00;;;;;;5065147;28;20198;-78
2023/06/08 08:48:19;;;;;;;12.37;6.40;;;19.90;1.00;;;;;;5063580;28;20641;-79
2023/06/08 08:50:53;;;;;;;11.13;6.80;;;20.00;1.00;;;;;;5065028;28;20556;-79
2023/06/08 08:53:20;;;;;;;10.80;6.57;;;20.10;1.00;;;;;;5065175;28;20207;-79
2023/06/08 08:55:48;;;;;;;14.13;7.37;;;20.20;1.00;;;;;;5065298;28;20648;-82
2023/06/08 08:58:18;;;;;;;10.07;6.43;;;20.30;1.00;;;;;;5065871;28;20163;-80
2023/06/08 09:00:48;;;;;;;13.97;6.80;;;20.40;1.00;;;;;;5063162;28;20191;-79
2023/06/08 09:03:15;;;;;;;10.20;6.17;;;20.50;1.00;;;;;;5064744;28;20187;-79
2023/06/08 09:05:43;;;;;;;9.10;5.70;;;20.70;99.90;;;;;;5064749;28;20535;-79
2023/06/08 09:08:09;;;;;;;9.77;5.93;;;20.80;99.90;;;;;;5066449;28;20180;-79
2023/06/08 09:10:35;;;;;;;11.33;6.80;;;20.90;1.00;;;;;;5061195;28;20227;-78
2023/06/08 09:13:02;;;;;;;8.80;5.10;;;21.00;99.90;;;;;;5062745;28;20226;-81
2023/06/08 09:15:37;;;;;;;11.63;5.87;;;21.00;99.90;;;;;;5067989;28;20164;-81
2023/06/08 09:18:15;;;;;;;8.90;4.87;;;21.10;99.90;;;;;;5069383;28;20572;-81
2023/06/08 09:20:41;;;;;;;12.87;5.60;;;21.20;1.00;;;;;;5072104;28;20218;-81
2023/06/08 09:23:15;;;;;;;7.73;5.37;;;21.30;1.00;;;;;;5071095;28;20191;-81
2023/06/08 09:25:41;;;;;;;8.23;5.17;;;21.30;1.00;;;;;;5074148;28;20184;-79
2023/06/08 09:28:17;;;;;;;9.73;5.30;;;21.40;99.90;;;;;;5072616;28;20183;-80
2023/06/08 09:30:44;;;;;;;8.30;5.47;;;21.40;99.90;;;;;;5072464;28;20172;-81
2023/06/08 09:33:20;;;;;;;12.03;5.90;;;21.70;99.90;;;;;;5069490;28;20195;-80
2023/06/08 09:35:58;;;;;;;8.33;4.90;;;21.50;99.90;;;;;;5071729;28;20205;-80
2023/06/08 09:38:26;;;;;;;9.97;6.13;;;21.70;99.90;;;;;;5071634;28;20163;-80
2023/06/08 09:41:15;;;;;;;10.50;6.30;;;21.70;99.90;;;;;;5071333;28;20233;-82
2023/06/08 09:43:43;;;;;;;9.30;6.27;;;21.70;99.90;;;;;;5071285;28;20203;-83
2023/06/08 09:46:16;;;;;;;8.20;6.30;;;21.70;99.90;;;;;;5073822;28;20167;-81
2023/06/08 09:48:52;;;;;;;13.80;7.00;;;21.80;99.90;;;;;;5073752;28;20153;-81
2023/06/08 09:51:18;;;;;;;12.43;7.10;;;21.90;99.90;;;;;;5074648;28;20243;-80
2023/06/08 09:53:45;;;;;;;12.80;6.30;;;21.90;99.90;;;;;;5075664;28;20237;-81
2023/06/08 09:56:12;;;;;;;12.33;6.03;;;21.90;99.90;;;;;;5080023;28;20252;-78
2023/06/08 09:58:39;;;;;;;12.23;6.30;;;22.00;99.90;;;;;;5080207;28;20222;-79
2023/06/08 10:01:10;;;;;;;13.17;6.73;;;22.00;99.90;;;;;;5070301;28;20551;-84
2023/06/08 10:03:38;;;;;;;12.00;6.67;;;22.10;99.90;;;;;;5065606;28;20235;-78
2023/06/08 10:06:07;;;;;;;11.13;6.23;;;22.10;99.90;;;;;;5065358;28;20198;-77
2023/06/08 10:08:32;;;;;;;9.10;5.60;;;22.10;99.90;;;;;;5065371;28;20171;-78
2023/06/08 10:10:59;;;;;;;11.63;6.63;;;22.10;99.90;;;;;;5065314;28;20648;-78
2023/06/08 10:13:27;;;;;;;10.43;6.07;;;22.20;99.90;;;;;;5062854;28;20225;-78
2023/06/08 10:15:53;;;;;;;11.10;6.60;;;22.30;99.90;;;;;;5065386;28;20179;-78
2023/06/08 10:18:19;;;;;;;11.37;6.27;;;22.40;99.90;;;;;;5067505;28;20559;-81
2023/06/08 10:20:45;;;;;;;9.23;5.87;;;22.50;99.90;;;;;;5066337;28;20199;-81
2023/06/08 10:23:12;;;;;;;13.00;5.33;;;22.50;99.90;;;;;;5064492;28;20687;-82
2023/06/08 10:25:40;;;;;;;11.20;5.93;;;22.50;99.90;;;;;;5067374;28;20529;-81
2023/06/08 10:28:08;;;;;;;11.40;5.23;;;22.70;99.90;;;;;;5065273;28;20175;-81
2023/06/08 10:30:42;;;;;;;8.87;5.77;;;22.80;99.90;;;;;;5067744;28;20258;-81
2023/06/08 10:33:16;;;;;;;9.40;6.07;;;22.90;99.90;;;;;;5067833;28;20203;-80
2023/06/08 10:36:03;;;;;;;12.17;5.77;;;23.00;99.90;;;;;;5065600;28;20194;-82
2023/06/08 10:38:33;;;;;;;9.50;6.03;;;23.00;99.90;;;;;;5066274;28;20172;-82
2023/06/08 10:40:59;;;;;;;10.30;5.77;;;23.10;99.90;;;;;;5065334;28;20193;-82
2023/06/08 10:43:28;;;;;;;11.47;5.63;;;23.20;99.90;;;;;;5065469;28;20203;-80
2023/06/08 10:45:53;;;;;;;11.87;6.10;;;23.30;99.90;;;;;;5065591;28;20552;-82
2023/06/08 10:48:21;;;;;;;9.07;5.53;;;23.40;99.90;;;;;;5065404;28;20183;-81
2023/06/08 10:50:49;;;;;;;8.47;5.90;;;23.50;99.90;;;;;;5065223;28;20209;-80
2023/06/08 10:53:19;;;;;;;9.30;5.70;;;23.50;99.90;;;;;;5063937;28;20207;-82
2023/06/08 10:55:48;;;;;;;10.83;5.80;;;23.50;99.90;;;;;;5064519;28;20219;-82
2023/06/08 10:58:19;;;;;;;10.30;5.50;;;23.80;99.90;;;;;;5063948;28;20581;-80
2023/06/08 11:00:48;;;;;;;9.43;5.10;;;23.70;99.90;;;;;;5062971;28;20241;-80
2023/06/08 11:03:18;;;;;;;8.13;5.27;;;23.80;99.90;;;;;;5061324;28;20250;-77
2023/06/08 11:05:50;;;;;;;8.63;5.50;;;23.90;99.90;;;;;;5061419;28;20168;-78
2023/06/08 11:08:16;;;;;;;9.27;5.40;;;23.90;99.90;;;;;;5064167;28;20236;-78
2023/06/08 11:10:44;;;;;;;7.73;5.87;;;24.00;36.70;;;;;;5061850;28;20176;-78
2023/06/08 11:13:16;;;;;;;8.93;4.80;;;24.00;1.00;;;;;;5062970;28;20199;-78
2023/06/08 11:15:43;;;;;;;7.57;5.07;;;24.00;1.00;;;;;;5061495;28;20215;-78
2023/06/08 11:18:10;;;;;;;7.30;4.80;;;24.20;77.80;;;;;;5059957;28;20229;-78
2023/06/08 11:20:38;;;;;;;7.03;5.40;;;24.20;99.90;;;;;;5060561;28;20528;-80
2023/06/08 11:23:09;;;;;;;8.00;4.60;;;24.20;1.00;;;;;;5055395;28;20206;-80
2023/06/08 11:25:35;;;;;;;8.60;4.83;;;24.30;44.40;;;;;;5058016;28;20194;-78
2023/06/08 11:28:01;;;;;;;8.40;5.20;;;24.50;49.10;;;;;;5059226;28;20591;-79
2023/06/08 11:30:31;;;;;;;7.80;5.00;;;24.50;1.00;;;;;;5057857;28;20194;-79
2023/06/08 11:32:57;;;;;;;6.23;4.60;;;24.50;1.00;;;;;;5058136;28;20202;-79
2023/06/08 11:35:23;;;;;;;7.07;4.70;;;24.60;1.00;;;;;;5059124;28;20217;-80
2023/06/08 11:37:55;;;;;;;12.05;5.70;;;24.70;1.00;;;;;;5058529;28;20591;-80
2023/06/08 11:40:21;;;;;;;5.75;4.53;;;24.80;1.00;;;;;;5058556;28;20213;-80
2023/06/08 11:42:47;;;;;;;7.93;4.82;;;24.90;1.00;;;;;;5056428;28;20333;-79
2023/06/08 11:45:14;;;;;;;6.63;4.90;;;24.90;1.00;;;;;;5049459;28;20614;-78
2023/06/08 11:47:43;;;;;;;8.07;4.75;;;25.00;1.00;;;;;;5041173;28;20634;-80
2023/06/08 11:50:13;;;;;;;7.83;5.03;;;25.10;1.00;;;;;;5043002;28;20183;-81
2023/06/08 11:52:41;;;;;;;6.85;4.53;;;25.10;1.00;;;;;;5044926;28;20211;-80
2023/06/08 11:55:13;;;;;;;7.97;4.43;;;25.10;1.00;;;;;;5063403;28;20179;-81
2023/06/08 11:57:40;;;;;;;8.03;5.20;;;25.20;1.00;;;;;;5063760;28;20144;-81
2023/06/08 12:00:16;;;;;;;9.25;5.47;;;25.30;1.00;;;;;;5067012;28;20276;-82
2023/06/08 12:02:45;;;;;;;6.07;4.85;;;25.30;1.00;;;;;;5058102;28;20204;-82
2023/06/08 12:05:19;;;;;;;9.98;4.95;;;25.30;1.00;;;;;;5061106;28;20179;-81
2023/06/08 12:07:57;;;;;;;8.50;5.07;;;25.40;1.00;;;;;;5061501;28;20160;-81
2023/06/08 12:10:30;;;;;;;7.00;5.15;;;25.50;1.00;;;;;;5058847;28;20258;-81
2023/06/08 12:12:56;;;;;;;8.25;5.05;;;25.50;1.00;;;;;;5059983;28;20211;-81
2023/06/08 12:15:21;;;;;;;8.98;5.13;;;25.50;1.00;;;;;;5061819;28;20268;-80
2023/06/08 12:17:47;;;;;;;7.03;5.32;;;25.60;1.00;;;;;;5060267;28;20183;-82
2023/06/08 12:20:17;;;;;;;6.22;5.25;;;25.50;1.00;;;;;;5061377;28;20260;-79
2023/06/08 12:22:43;;;;;;;7.93;5.32;;;25.50;1.00;;;;;;5058330;28;21679;-80
2023/06/08 12:25:09;;;;;;;7.38;4.78;;;25.60;1.00;;;;;;5060996;28;20180;-81
2023/06/08 12:27:37;;;;;;;7.03;4.28;;;25.50;1.00;;;;;;5059009;28;20269;-80
2023/06/08 12:30:08;;;;;;;3.90;3.50;;;25.40;1.00;;;;;;5059811;28;20301;-80
2023/06/08 12:32:34;;;;;;;6.68;4.65;;;25.50;1.00;;;;;;5060301;28;20207;-80
2023/06/08 12:35:00;;;;;;;8.27;5.05;;;25.70;1.00;;;;;;5061155;28;20711;-80
2023/06/08 12:37:26;;;;;;;8.02;4.68;;;25.70;1.00;;;;;;5060922;28;20266;-80
2023/06/08 12:39:52;;;;;;;8.30;5.05;;;25.90;1.00;;;;;;5062248;28;20185;-80
2023/06/08 12:42:18;;;;;;;8.23;5.13;;;26.00;1.00;;;;;;5062367;28;20195;-80
2023/06/08 12:44:44;;;;;;;6.80;4.68;;;26.10;1.00;;;;;;5061816;28;20184;-81
2023/06/08 12:47:10;;;;;;;6.50;4.47;;;26.30;1.00;;;;;;5060577;28;20176;-80
2023/06/08 12:49:35;;;;;;;6.95;4.70;;;26.30;1.00;;;;;;5061006;28;20645;-80
2023/06/08 12:52:01;;;;;;;5.88;4.05;;;26.30;1.00;;;;;;5051531;28;20279;-81